Time;durP1;ratioP1;P1;durP2;ratioP2;P2;SDS_P1;SDS_P2;PMS_P1;PMS_P2;Temp;Humidity;BMP_temperature;BMP_pressure;BME280_temperature;BME280_humidity;BME280_pressure;Samples;Min_cycle;Max_cycle;Signal;HPM_P1;HPM_P2
2022/01/17 00:00:20;;;;;;;16.00;3.08;;;5.80;99.90;;;;;;5005858;28;22100;-81
2022/01/17 00:02:48;;;;;;;17.13;2.45;;;5.70;99.90;;;;;;4989552;28;20105;-81
2022/01/17 00:05:14;;;;;;;14.10;2.92;;;5.70;99.90;;;;;;4985642;28;20030;-81
2022/01/17 00:07:39;;;;;;;16.10;2.97;;;5.70;99.90;;;;;;4986942;28;20048;-82
2022/01/17 00:10:07;;;;;;;18.30;3.15;;;5.60;99.90;;;;;;4984670;28;20038;-81
2022/01/17 00:12:36;;;;;;;13.55;2.00;;;5.60;99.90;;;;;;5003740;28;20038;-81
2022/01/17 00:15:11;;;;;;;16.23;2.97;;;5.50;99.90;;;;;;5005241;28;20018;-81
2022/01/17 00:17:40;;;;;;;16.15;2.92;;;5.50;99.90;;;;;;5002254;28;20453;-81
2022/01/17 00:20:10;;;;;;;24.05;2.63;;;5.50;99.90;;;;;;4988443;28;20046;-82
2022/01/17 00:22:39;;;;;;;22.23;2.63;;;5.40;99.90;;;;;;4961132;28;20033;-81
2022/01/17 00:25:08;;;;;;;12.85;2.75;;;5.40;99.90;;;;;;5006322;28;20038;-81
2022/01/17 00:27:34;;;;;;;19.52;2.63;;;5.40;99.90;;;;;;4995983;28;20241;-81
2022/01/17 00:30:03;;;;;;;20.13;3.90;;;5.40;99.90;;;;;;4994404;28;20042;-81
2022/01/17 00:32:30;;;;;;;16.48;2.60;;;5.40;99.90;;;;;;4992978;28;20046;-81
2022/01/17 00:34:56;;;;;;;13.23;2.60;;;5.40;99.90;;;;;;5013570;28;20025;-81
2022/01/17 00:37:22;;;;;;;18.42;2.70;;;5.40;99.90;;;;;;4988752;28;20351;-81
2022/01/17 00:39:48;;;;;;;12.65;2.45;;;5.30;99.90;;;;;;4992721;28;20041;-81
2022/01/17 00:42:13;;;;;;;16.38;3.05;;;5.20;99.90;;;;;;4975552;28;20490;-81
2022/01/17 00:44:39;;;;;;;10.60;2.83;;;5.10;99.90;;;;;;4991750;28;20072;-81
2022/01/17 00:47:05;;;;;;;16.25;2.75;;;5.00;99.90;;;;;;4993618;28;20398;-80
2022/01/17 00:49:31;;;;;;;16.10;2.58;;;5.00;99.90;;;;;;4996008;28;20108;-81
2022/01/17 00:51:56;;;;;;;20.05;2.95;;;4.90;99.90;;;;;;4977570;28;20440;-80
2022/01/17 00:54:22;;;;;;;22.50;3.40;;;4.90;99.90;;;;;;4997882;28;20435;-80
2022/01/17 00:56:48;;;;;;;14.63;2.80;;;4.90;99.90;;;;;;4991541;28;20107;-81
2022/01/17 00:59:13;;;;;;;16.98;2.83;;;4.90;99.90;;;;;;5000438;28;20041;-82
2022/01/17 01:01:40;;;;;;;18.15;3.08;;;5.00;99.90;;;;;;4979619;28;20029;-82
2022/01/17 01:04:08;;;;;;;17.90;3.33;;;5.00;99.90;;;;;;5005963;28;20042;-81
2022/01/17 01:06:36;;;;;;;17.58;2.67;;;5.10;99.90;;;;;;5006542;28;20057;-81
2022/01/17 01:09:02;;;;;;;13.65;2.70;;;5.10;99.90;;;;;;4988586;28;20501;-80
2022/01/17 01:11:28;;;;;;;17.38;2.92;;;5.10;99.90;;;;;;4993960;28;20366;-80
2022/01/17 01:13:54;;;;;;;22.25;2.72;;;5.20;99.90;;;;;;5008614;28;20022;-80
2022/01/17 01:29:30;;;;;;;15.77;2.80;;;4.70;99.90;;;;;;5007943;28;20484;-81
2022/01/17 01:32:04;;;;;;;18.40;3.00;;;4.70;99.90;;;;;;4992090;28;20017;-81
2022/01/17 01:34:37;;;;;;;15.02;2.90;;;4.60;99.90;;;;;;4974427;28;20537;-81
2022/01/17 01:37:04;;;;;;;17.55;3.13;;;4.60;99.90;;;;;;4976176;28;20037;-79
2022/01/17 01:39:30;;;;;;;16.02;2.55;;;4.50;99.90;;;;;;4984777;28;20076;-81
2022/01/17 01:41:55;;;;;;;16.35;2.90;;;4.40;99.90;;;;;;5008650;28;20065;-79
2022/01/17 01:44:24;;;;;;;19.55;3.65;;;4.50;99.90;;;;;;4975794;28;20057;-81
2022/01/17 01:46:51;;;;;;;18.38;3.38;;;4.50;99.90;;;;;;4990045;28;20022;-81
2022/01/17 01:49:18;;;;;;;16.23;2.92;;;4.60;99.90;;;;;;4973736;28;20029;-81
2022/01/17 01:51:45;;;;;;;23.52;3.63;;;4.60;99.90;;;;;;4986063;28;20100;-81
2022/01/17 01:54:11;;;;;;;16.23;3.15;;;4.60;99.90;;;;;;4995811;28;20018;-81
2022/01/17 01:56:42;;;;;;;18.48;3.42;;;4.50;99.90;;;;;;4995941;28;20417;-81
2022/01/17 01:59:08;;;;;;;16.17;2.60;;;4.60;99.90;;;;;;5004882;28;20110;-81
2022/01/17 02:01:34;;;;;;;16.30;2.92;;;4.50;99.90;;;;;;4976853;28;20033;-81
2022/01/17 02:04:00;;;;;;;19.63;3.03;;;4.60;99.90;;;;;;5006888;28;20036;-81
2022/01/17 02:06:26;;;;;;;13.00;2.60;;;4.60;99.90;;;;;;4974732;28;20548;-81
2022/01/17 02:08:51;;;;;;;14.23;2.47;;;4.60;99.90;;;;;;4972228;28;20087;-81
2022/01/17 02:11:17;;;;;;;15.93;3.17;;;4.60;99.90;;;;;;4996486;28;20034;-81
2022/01/17 02:13:43;;;;;;;15.85;2.50;;;4.60;99.90;;;;;;5005630;28;20121;-81
2022/01/17 02:16:12;;;;;;;19.67;3.03;;;4.70;99.90;;;;;;4994523;28;20061;-81
2022/01/17 02:18:40;;;;;;;17.65;3.10;;;4.70;99.90;;;;;;5001957;28;20025;-81
2022/01/17 02:23:45;;;;;;;20.17;3.63;;;4.60;99.90;;;;;;4993980;28;20046;-81
2022/01/17 02:26:11;;;;;;;17.08;3.80;;;4.60;99.90;;;;;;5006320;28;20374;-81
2022/01/17 02:28:37;;;;;;;19.75;3.22;;;4.60;99.90;;;;;;5008580;28;20034;-81
2022/01/17 02:31:05;;;;;;;13.98;2.95;;;4.50;99.90;;;;;;4979374;28;20038;-81
2022/01/17 02:33:34;;;;;;;21.83;3.75;;;4.50;99.90;;;;;;4991002;28;20132;-81
2022/01/17 02:36:01;;;;;;;22.08;3.65;;;4.40;99.90;;;;;;4987592;28;20072;-81
2022/01/17 02:38:27;;;;;;;16.63;3.28;;;4.40;99.90;;;;;;5005658;28;20025;-81
2022/01/17 02:40:53;;;;;;;16.95;3.25;;;4.40;99.90;;;;;;4987561;28;20381;-81
2022/01/17 02:43:21;;;;;;;17.88;3.90;;;4.40;99.90;;;;;;4990408;28;20025;-81
2022/01/17 02:48:17;;;;;;;20.13;3.47;;;4.40;99.90;;;;;;4991764;28;21661;-81
2022/01/17 02:50:43;;;;;;;16.50;3.40;;;4.30;99.90;;;;;;4989554;28;20124;-81
2022/01/17 02:53:09;;;;;;;13.18;2.72;;;4.20;99.90;;;;;;4980918;28;20058;-81
2022/01/17 02:55:36;;;;;;;18.52;3.25;;;4.20;99.90;;;;;;4989177;28;20060;-81
2022/01/17 02:58:02;;;;;;;17.42;3.15;;;4.10;99.90;;;;;;4989541;28;20026;-81
2022/01/17 03:00:28;;;;;;;16.33;3.10;;;4.10;99.90;;;;;;4977255;28;20489;-81
2022/01/17 03:02:54;;;;;;;17.25;3.42;;;4.10;99.90;;;;;;4970573;28;20033;-81
2022/01/17 03:05:21;;;;;;;18.35;3.80;;;4.10;99.90;;;;;;5000234;28;20025;-81
2022/01/17 03:07:48;;;;;;;21.92;2.83;;;4.10;99.90;;;;;;4992884;28;20074;-78
2022/01/17 03:12:46;;;;;;;16.60;2.92;;;4.10;99.90;;;;;;5000819;28;20045;-78
2022/01/17 03:15:13;;;;;;;17.98;2.97;;;4.00;99.90;;;;;;4989138;28;20030;-78
2022/01/17 03:17:40;;;;;;;17.63;2.70;;;4.00;99.90;;;;;;4987496;28;20133;-78
2022/01/17 03:20:06;;;;;;;16.92;2.95;;;4.00;99.90;;;;;;4986936;28;20056;-78
2022/01/17 03:22:32;;;;;;;20.90;3.38;;;3.90;99.90;;;;;;4975990;28;20038;-79
2022/01/17 03:24:59;;;;;;;15.82;2.95;;;3.90;99.90;;;;;;4987267;28;20045;-78
2022/01/17 03:27:25;;;;;;;14.98;3.10;;;4.00;99.90;;;;;;5001951;28;20081;-81
2022/01/17 03:29:50;;;;;;;16.27;3.00;;;4.00;99.90;;;;;;5028981;28;20573;-81
2022/01/17 03:32:16;;;;;;;19.50;3.03;;;4.10;99.90;;;;;;4979199;28;20537;-79
2022/01/17 03:34:42;;;;;;;20.27;2.95;;;4.10;99.90;;;;;;4997270;28;20469;-79
2022/01/17 03:37:08;;;;;;;18.00;3.88;;;4.10;99.90;;;;;;4989570;28;20037;-79
2022/01/17 03:39:34;;;;;;;11.80;2.75;;;4.10;99.90;;;;;;4987515;28;20044;-79
2022/01/17 03:42:00;;;;;;;18.40;2.90;;;4.20;99.90;;;;;;4987952;28;20026;-79
2022/01/17 03:44:26;;;;;;;19.83;3.47;;;4.20;99.90;;;;;;4991954;28;20462;-79
2022/01/17 03:46:51;;;;;;;12.85;2.42;;;4.20;99.90;;;;;;4991677;28;20042;-79
2022/01/17 03:49:17;;;;;;;14.40;2.90;;;4.30;99.90;;;;;;4996500;28;20045;-79
2022/01/17 03:51:43;;;;;;;16.33;3.28;;;4.30;99.90;;;;;;4975382;28;20389;-79
2022/01/17 03:54:08;;;;;;;22.20;2.60;;;4.30;99.90;;;;;;4987488;28;21453;-79
2022/01/17 03:56:34;;;;;;;13.90;2.70;;;4.40;99.90;;;;;;5006607;28;20052;-79
2022/01/17 03:59:00;;;;;;;19.63;2.88;;;4.40;99.90;;;;;;5009580;28;20405;-79
2022/01/17 04:01:25;;;;;;;12.27;2.55;;;4.50;99.90;;;;;;5001914;28;20065;-79
2022/01/17 04:03:51;;;;;;;16.58;3.08;;;4.50;99.90;;;;;;4975295;28;20057;-79
2022/01/17 04:06:17;;;;;;;15.02;2.85;;;4.50;99.90;;;;;;4994461;28;20131;-79
2022/01/17 04:08:43;;;;;;;18.25;2.50;;;4.60;99.90;;;;;;4989220;28;20038;-79
2022/01/17 04:11:09;;;;;;;18.77;2.72;;;4.60;99.90;;;;;;5005658;28;20108;-79
2022/01/17 04:13:35;;;;;;;16.30;2.70;;;4.60;99.90;;;;;;4994871;28;20450;-79
2022/01/17 04:16:02;;;;;;;16.25;2.83;;;4.60;99.90;;;;;;5011426;28;20481;-79
2022/01/17 04:18:28;;;;;;;14.90;2.72;;;4.50;99.90;;;;;;4990059;28;20096;-79
2022/01/17 04:20:55;;;;;;;14.32;2.92;;;4.50;99.90;;;;;;4982171;28;20024;-79
2022/01/17 04:23:21;;;;;;;12.60;2.28;;;4.40;99.90;;;;;;4976693;28;20438;-79
2022/01/17 04:25:48;;;;;;;13.43;2.90;;;4.30;99.90;;;;;;5011171;28;20069;-79
2022/01/17 04:28:14;;;;;;;18.90;2.75;;;4.30;99.90;;;;;;4991318;28;20033;-79
2022/01/17 04:30:42;;;;;;;15.60;3.08;;;4.30;99.90;;;;;;5011166;28;20026;-79
2022/01/17 04:33:08;;;;;;;13.52;2.78;;;4.30;99.90;;;;;;5012120;28;20560;-79
2022/01/17 04:35:35;;;;;;;16.13;3.17;;;4.30;99.90;;;;;;4999052;28;20049;-79
2022/01/17 04:38:08;;;;;;;16.45;2.88;;;4.20;99.90;;;;;;5000451;28;20049;-79
2022/01/17 04:40:37;;;;;;;15.65;2.90;;;4.20;99.90;;;;;;4991619;28;20014;-79
2022/01/17 04:43:05;;;;;;;17.65;2.83;;;4.20;99.90;;;;;;4982143;28;20358;-79
2022/01/17 04:45:32;;;;;;;18.42;3.17;;;4.20;99.90;;;;;;5004987;28;20049;-79
2022/01/17 04:47:58;;;;;;;14.18;2.97;;;4.20;99.90;;;;;;5007877;28;20129;-79
2022/01/17 04:50:26;;;;;;;19.17;2.92;;;4.30;99.90;;;;;;4972834;28;20120;-79
2022/01/17 04:52:57;;;;;;;15.73;2.90;;;4.40;99.90;;;;;;5004983;28;20524;-79
2022/01/17 04:55:24;;;;;;;16.87;2.97;;;4.40;99.90;;;;;;4990262;28;20466;-79
2022/01/17 04:57:50;;;;;;;17.90;3.55;;;4.40;99.90;;;;;;5006620;28;20096;-79
2022/01/17 05:00:18;;;;;;;19.77;3.33;;;4.50;99.90;;;;;;5008261;28;20045;-79
2022/01/17 05:02:44;;;;;;;18.52;2.55;;;4.60;99.90;;;;;;4992524;28;20022;-78
2022/01/17 05:05:11;;;;;;;17.65;3.10;;;4.70;99.90;;;;;;5008521;28;20026;-79
2022/01/17 05:07:39;;;;;;;24.27;3.72;;;4.70;99.90;;;;;;5008860;28;20108;-81
2022/01/17 05:10:08;;;;;;;21.30;3.35;;;4.80;99.90;;;;;;5008134;28;20026;-79
2022/01/17 05:12:34;;;;;;;18.35;3.30;;;4.90;99.90;;;;;;5010042;28;20042;-79
2022/01/17 05:15:00;;;;;;;23.80;3.75;;;5.00;99.90;;;;;;5013419;28;20366;-79
2022/01/17 05:19:58;;;;;;;18.42;3.00;;;5.10;99.90;;;;;;4988631;28;20034;-79
2022/01/17 05:22:33;;;;;;;17.77;3.22;;;5.10;99.90;;;;;;4987543;28;20105;-82
2022/01/17 05:24:59;;;;;;;21.77;3.72;;;5.20;99.90;;;;;;5001696;28;20073;-81
2022/01/17 05:27:25;;;;;;;17.10;3.35;;;5.20;99.90;;;;;;5004539;28;20117;-81
2022/01/17 05:29:51;;;;;;;20.48;3.85;;;5.20;99.90;;;;;;4987641;28;20490;-81
2022/01/17 05:32:17;;;;;;;12.90;3.60;;;5.30;99.90;;;;;;4992062;28;20048;-81
2022/01/17 05:34:43;;;;;;;20.15;3.17;;;5.20;99.90;;;;;;4978360;28;20029;-81
2022/01/17 05:37:10;;;;;;;15.35;3.60;;;5.30;99.90;;;;;;4986691;28;20061;-80
2022/01/17 05:39:37;;;;;;;21.58;4.25;;;5.30;99.90;;;;;;4989498;28;20049;-81
2022/01/17 05:42:04;;;;;;;18.77;3.33;;;5.40;99.90;;;;;;5010947;28;20092;-81
2022/01/17 05:44:31;;;;;;;17.63;3.85;;;5.50;99.90;;;;;;5005231;28;20038;-81
2022/01/17 05:46:57;;;;;;;21.85;4.03;;;5.50;99.90;;;;;;4995050;28;20092;-80
2022/01/17 05:49:23;;;;;;;20.13;3.67;;;5.50;99.90;;;;;;5007682;28;20042;-78
2022/01/17 05:51:49;;;;;;;15.60;3.78;;;5.40;99.90;;;;;;5008733;28;20109;-79
2022/01/17 05:54:16;;;;;;;17.52;3.88;;;5.50;99.90;;;;;;4986399;28;20026;-79
2022/01/17 05:56:42;;;;;;;24.08;4.18;;;5.50;99.90;;;;;;4974946;28;20370;-79
2022/01/17 05:59:07;;;;;;;22.77;4.35;;;5.50;99.90;;;;;;4980395;28;20045;-78
2022/01/17 06:01:33;;;;;;;20.38;4.30;;;5.50;99.90;;;;;;4976853;28;20116;-79
2022/01/17 06:03:59;;;;;;;20.92;3.85;;;5.50;99.90;;;;;;4979367;28;20038;-78
2022/01/17 06:06:24;;;;;;;21.05;4.72;;;5.50;99.90;;;;;;4974253;28;20362;-80
2022/01/17 06:08:50;;;;;;;15.98;4.00;;;5.50;99.90;;;;;;5013716;28;20433;-79
2022/01/17 06:11:16;;;;;;;18.00;4.30;;;5.60;99.90;;;;;;4993776;28;20109;-79
2022/01/17 06:13:44;;;;;;;17.55;4.47;;;5.60;99.90;;;;;;5009309;28;20339;-79
2022/01/17 06:16:09;;;;;;;23.17;5.72;;;5.60;99.90;;;;;;4998062;28;20037;-80
2022/01/17 06:18:37;;;;;;;23.63;5.57;;;5.60;99.90;;;;;;4994398;28;20343;-79
2022/01/17 06:21:03;;;;;;;25.13;5.78;;;5.70;99.90;;;;;;4994227;28;20042;-81
2022/01/17 06:23:29;;;;;;;17.55;4.97;;;5.70;99.90;;;;;;4999019;28;20485;-80
2022/01/17 06:25:54;;;;;;;22.50;5.38;;;5.70;99.90;;;;;;4994931;28;20030;-80
2022/01/17 06:28:20;;;;;;;27.02;5.95;;;5.70;99.90;;;;;;4997172;28;20541;-79
2022/01/17 06:30:46;;;;;;;18.52;5.20;;;5.70;99.90;;;;;;4991361;28;20653;-81
2022/01/17 06:33:11;;;;;;;19.48;4.72;;;5.70;99.90;;;;;;4990274;28;20101;-81
2022/01/17 06:35:37;;;;;;;21.38;5.53;;;5.70;99.90;;;;;;4991782;28;20240;-81
2022/01/17 06:38:03;;;;;;;20.13;5.57;;;5.80;99.90;;;;;;5008153;28;20061;-81
2022/01/17 06:40:29;;;;;;;24.80;6.40;;;5.70;99.90;;;;;;5008037;28;20040;-81
2022/01/17 06:42:55;;;;;;;21.77;5.72;;;5.70;99.90;;;;;;4995266;28;20516;-81
2022/01/17 06:45:21;;;;;;;22.48;6.68;;;5.80;99.90;;;;;;4990106;28;20021;-78
2022/01/17 06:47:47;;;;;;;20.15;6.22;;;5.80;99.90;;;;;;5010444;28;20030;-79
2022/01/17 06:50:14;;;;;;;23.23;6.72;;;5.80;99.90;;;;;;4993915;28;20041;-78
2022/01/17 06:52:40;;;;;;;24.10;6.55;;;5.70;99.90;;;;;;5025042;28;20014;-80
2022/01/17 06:55:07;;;;;;;22.27;6.88;;;5.70;99.90;;;;;;5005235;28;20167;-79
2022/01/17 06:57:33;;;;;;;22.15;7.00;;;5.80;99.90;;;;;;5008678;28;20520;-79
2022/01/17 06:59:59;;;;;;;21.58;6.57;;;5.70;99.90;;;;;;4988509;28;20065;-78
2022/01/17 07:02:24;;;;;;;23.95;7.80;;;5.80;99.90;;;;;;5012157;28;20650;-79
2022/01/17 07:04:50;;;;;;;23.85;7.65;;;5.80;99.90;;;;;;4981850;28;20023;-78
2022/01/17 07:07:17;;;;;;;24.77;7.15;;;5.80;99.90;;;;;;4990202;28;20030;-79
2022/01/17 07:09:43;;;;;;;26.48;7.40;;;5.90;99.90;;;;;;5012764;28;20025;-78
2022/01/17 07:12:09;;;;;;;21.50;6.72;;;5.90;99.90;;;;;;4994549;28;20141;-79
2022/01/17 07:14:41;;;;;;;23.85;6.95;;;5.90;99.90;;;;;;5005571;28;20093;-80
2022/01/17 07:17:07;;;;;;;21.60;7.57;;;6.00;99.90;;;;;;4991153;28;20034;-80
2022/01/17 07:19:33;;;;;;;29.88;7.10;;;5.90;99.90;;;;;;4975444;28;20037;-80
2022/01/17 07:21:59;;;;;;;22.90;7.15;;;5.90;99.90;;;;;;4983559;28;20038;-80
2022/01/17 07:24:25;;;;;;;25.33;7.53;;;6.00;99.90;;;;;;4982697;28;20030;-81
2022/01/17 07:26:51;;;;;;;26.98;7.40;;;6.00;99.90;;;;;;4992556;28;20029;-80
2022/01/17 07:29:16;;;;;;;32.83;7.25;;;6.00;99.90;;;;;;5001330;28;20030;-81
2022/01/17 07:31:42;;;;;;;30.20;7.20;;;6.00;99.90;;;;;;4991610;28;20429;-81
2022/01/17 07:34:09;;;;;;;23.38;6.28;;;6.00;99.90;;;;;;5001226;28;20064;-80
2022/01/17 07:36:35;;;;;;;28.10;7.22;;;6.00;99.90;;;;;;4989419;28;20026;-80
2022/01/17 07:39:01;;;;;;;26.63;6.53;;;6.10;99.90;;;;;;5009836;28;20030;-88
2022/01/17 07:41:27;;;;;;;26.58;6.57;;;6.00;99.90;;;;;;5011426;28;20470;-82
2022/01/17 07:43:53;;;;;;;27.92;6.43;;;6.10;99.90;;;;;;4984430;28;20057;-85
2022/01/17 07:46:25;;;;;;;27.80;6.85;;;6.10;99.90;;;;;;4990639;28;20030;-83
2022/01/17 07:49:13;;;;;;;28.60;6.93;;;6.10;99.90;;;;;;4989510;28;20057;-81
2022/01/17 07:51:44;;;;;;;23.60;6.25;;;6.10;99.90;;;;;;5004946;28;20034;-82
2022/01/17 07:54:11;;;;;;;20.90;5.63;;;6.10;99.90;;;;;;5022914;28;20425;-81
2022/01/17 07:56:38;;;;;;;30.65;6.53;;;6.10;99.90;;;;;;5008376;28;20288;-82
2022/01/17 07:59:07;;;;;;;25.27;5.85;;;6.20;99.90;;;;;;4989007;28;20057;-83
2022/01/17 08:01:33;;;;;;;25.80;6.32;;;6.20;99.90;;;;;;4992016;28;20026;-83
2022/01/17 08:03:58;;;;;;;22.13;5.40;;;6.20;99.90;;;;;;4990449;28;20037;-82
2022/01/17 08:06:24;;;;;;;25.65;6.75;;;6.20;99.90;;;;;;4975378;28;20026;-84
2022/01/17 08:08:50;;;;;;;28.67;6.20;;;6.20;99.90;;;;;;4992297;28;20504;-81
2022/01/17 08:11:16;;;;;;;23.58;5.38;;;6.20;99.90;;;;;;4988785;28;20030;-82
2022/01/17 08:13:42;;;;;;;27.20;5.88;;;6.30;99.90;;;;;;5009633;28;20026;-82
2022/01/17 08:16:07;;;;;;;31.23;6.07;;;6.30;99.90;;;;;;4973350;28;20458;-81
2022/01/17 08:18:33;;;;;;;27.77;6.70;;;6.30;99.90;;;;;;4976223;28;20036;-82
2022/01/17 08:20:59;;;;;;;32.25;6.40;;;6.30;99.90;;;;;;4976509;28;20124;-83
2022/01/17 08:23:25;;;;;;;26.98;6.28;;;6.30;99.90;;;;;;4991627;28;20113;-83
2022/01/17 08:25:51;;;;;;;34.85;5.18;;;6.40;99.90;;;;;;4975196;28;20112;-83
2022/01/17 08:28:17;;;;;;;24.30;5.50;;;6.40;99.90;;;;;;4992931;28;20041;-83
2022/01/17 08:30:43;;;;;;;32.35;5.47;;;6.40;99.90;;;;;;5020997;28;20402;-81
2022/01/17 08:33:09;;;;;;;26.08;5.00;;;6.40;99.90;;;;;;4992968;28;20030;-81
2022/01/17 08:35:35;;;;;;;27.30;5.13;;;6.40;99.90;;;;;;4973542;28;20657;-82
2022/01/17 08:38:01;;;;;;;26.67;6.03;;;6.50;99.90;;;;;;4993046;28;20087;-82
2022/01/17 08:40:27;;;;;;;26.08;4.72;;;6.40;99.90;;;;;;4992957;28;20394;-87
2022/01/17 08:42:53;;;;;;;34.05;5.80;;;6.50;99.90;;;;;;4995495;28;20512;-81
2022/01/17 08:45:21;;;;;;;28.88;5.75;;;6.50;99.90;;;;;;4994551;28;20223;-83
2022/01/17 08:47:49;;;;;;;32.92;5.47;;;6.50;99.90;;;;;;4996037;28;20034;-81
2022/01/17 08:50:17;;;;;;;29.48;5.43;;;6.50;99.90;;;;;;4994871;28;20035;-86
2022/01/17 08:52:46;;;;;;;20.10;4.57;;;6.60;99.90;;;;;;4995561;28;20138;-81
2022/01/17 08:55:12;;;;;;;34.53;5.82;;;6.60;99.90;;;;;;4994629;28;20053;-81
2022/01/17 08:57:38;;;;;;;35.83;5.53;;;6.60;99.90;;;;;;4982597;28;20099;-82
2022/01/17 09:00:08;;;;;;;26.73;5.88;;;6.70;99.90;;;;;;5012613;28;20430;-82
2022/01/17 09:02:34;;;;;;;24.90;4.82;;;6.70;99.90;;;;;;4996402;28;20030;-86
2022/01/17 09:05:00;;;;;;;24.65;5.18;;;6.70;99.90;;;;;;4998177;28;20394;-90
2022/01/17 09:07:26;;;;;;;28.95;4.90;;;6.80;99.90;;;;;;5018015;28;20080;-88
2022/01/17 09:09:52;;;;;;;29.70;6.15;;;6.80;99.90;;;;;;4997698;28;20460;-83
2022/01/17 09:12:17;;;;;;;38.00;5.57;;;6.80;99.90;;;;;;4977739;28;20040;-85
2022/01/17 09:14:43;;;;;;;27.40;5.45;;;6.90;99.90;;;;;;5003707;28;20061;-82
2022/01/17 09:17:10;;;;;;;28.90;5.50;;;6.90;99.90;;;;;;4996404;28;20057;-83
2022/01/17 09:19:38;;;;;;;36.17;5.43;;;6.90;99.90;;;;;;4999084;28;20504;-82
2022/01/17 09:22:06;;;;;;;32.33;5.72;;;7.00;99.90;;;;;;5013777;28;20065;-83
2022/01/17 09:24:33;;;;;;;30.25;5.35;;;7.00;99.90;;;;;;5007006;28;20025;-82
2022/01/17 09:26:59;;;;;;;38.67;5.45;;;7.10;99.90;;;;;;4999207;28;20549;-81
2022/01/17 09:29:24;;;;;;;27.67;5.35;;;7.10;99.90;;;;;;5001105;28;20117;-82
2022/01/17 09:31:50;;;;;;;36.42;5.10;;;7.20;99.90;;;;;;4997342;28;20026;-81
2022/01/17 09:34:16;;;;;;;28.65;4.63;;;7.20;99.90;;;;;;4995559;28;20054;-84
2022/01/17 09:36:42;;;;;;;32.38;6.53;;;7.20;99.90;;;;;;5011583;28;20044;-83
2022/01/17 09:39:08;;;;;;;31.80;5.18;;;7.30;99.90;;;;;;4996317;28;20087;-84
2022/01/17 09:41:34;;;;;;;39.00;5.53;;;7.30;99.90;;;;;;4994711;28;20056;-83
2022/01/17 09:44:01;;;;;;;28.75;5.22;;;7.40;99.90;;;;;;5013579;28;20049;-85
2022/01/17 09:46:35;;;;;;;30.80;4.85;;;7.40;99.90;;;;;;4996110;28;20022;-84
2022/01/17 09:49:13;;;;;;;28.17;5.07;;;7.50;99.90;;;;;;5013367;28;20113;-83
2022/01/17 09:54:28;;;;;;;28.08;5.55;;;7.60;99.90;;;;;;5013585;28;20033;-84
2022/01/17 09:56:56;;;;;;;30.80;5.55;;;7.70;99.90;;;;;;4995574;28;20129;-83
2022/01/17 09:59:23;;;;;;;28.83;4.45;;;7.80;99.90;;;;;;4994623;28;20030;-83
2022/01/17 10:01:49;;;;;;;30.45;5.75;;;7.90;99.90;;;;;;5009468;28;20030;-84
2022/01/17 10:04:17;;;;;;;33.13;5.28;;;7.90;99.90;;;;;;4996281;28;20056;-81
2022/01/17 10:06:51;;;;;;;27.88;4.68;;;7.90;99.90;;;;;;4996858;28;20105;-83
2022/01/17 10:09:21;;;;;;;26.05;4.85;;;8.10;99.90;;;;;;4994881;28;20034;-83
2022/01/17 10:12:01;;;;;;;34.85;5.43;;;8.10;99.90;;;;;;4996756;28;20014;-83
2022/01/17 10:14:29;;;;;;;30.30;5.50;;;8.30;99.90;;;;;;4994410;28;20184;-82
2022/01/17 10:16:54;;;;;;;36.10;5.40;;;8.40;99.90;;;;;;4995625;28;20113;-81
2022/01/17 10:19:27;;;;;;;31.13;5.55;;;8.60;99.90;;;;;;5012643;28;20164;-82
2022/01/17 10:21:58;;;;;;;33.33;5.97;;;8.60;99.90;;;;;;4992579;28;20025;-81
2022/01/17 10:27:17;;;;;;;36.60;5.70;;;8.80;99.90;;;;;;5013792;28;20041;-83
2022/01/17 10:35:24;;;;;;;28.58;4.88;;;8.90;99.90;;;;;;5012203;28;20053;-83
2022/01/17 10:38:04;;;;;;;29.98;5.75;;;9.10;99.90;;;;;;5011382;28;20054;-84
2022/01/17 10:40:34;;;;;;;34.88;5.70;;;9.10;99.90;;;;;;5013002;28;20095;-82
2022/01/17 10:43:02;;;;;;;30.75;5.57;;;9.10;99.90;;;;;;4993285;28;20121;-82
2022/01/17 10:45:33;;;;;;;36.17;5.53;;;9.20;99.90;;;;;;4994856;28;20413;-83
2022/01/17 10:48:03;;;;;;;37.45;5.88;;;9.20;99.90;;;;;;4994330;28;20044;-85
2022/01/17 10:50:35;;;;;;;32.38;5.43;;;9.30;99.90;;;;;;5012604;28;20060;-84
2022/01/17 10:53:03;;;;;;;30.05;5.75;;;9.30;99.90;;;;;;4993860;28;20065;-82
2022/01/17 10:55:32;;;;;;;30.17;5.50;;;9.40;99.90;;;;;;4993800;28;21404;-82
2022/01/17 10:58:02;;;;;;;43.78;6.03;;;9.50;99.90;;;;;;4994415;28;20022;-82
2022/01/17 11:00:31;;;;;;;31.75;6.07;;;9.40;99.90;;;;;;4993362;28;20113;-82
2022/01/17 11:03:05;;;;;;;32.42;5.80;;;9.40;99.90;;;;;;4994152;28;20030;-83
2022/01/17 11:05:32;;;;;;;41.10;6.72;;;9.50;99.90;;;;;;4993623;28;20378;-83
2022/01/17 11:08:01;;;;;;;36.10;5.45;;;9.40;99.90;;;;;;4992515;28;20080;-83
2022/01/17 11:10:39;;;;;;;33.30;6.80;;;9.40;99.90;;;;;;4992776;28;20045;-82
2022/01/17 11:13:08;;;;;;;32.88;6.20;;;9.40;99.90;;;;;;5006842;28;20087;-83
2022/01/17 11:15:38;;;;;;;43.95;6.63;;;9.40;99.90;;;;;;4992653;28;20080;-82
2022/01/17 11:18:17;;;;;;;34.03;6.20;;;9.40;99.90;;;;;;5024105;28;20041;-83
2022/01/17 11:20:44;;;;;;;41.33;7.30;;;9.40;99.90;;;;;;4994577;28;20075;-84
2022/01/17 11:23:10;;;;;;;39.13;6.82;;;9.30;99.90;;;;;;5011327;28;20033;-82
2022/01/17 11:25:37;;;;;;;26.77;5.53;;;9.30;99.90;;;;;;4991905;28;20028;-76
2022/01/17 11:28:05;;;;;;;38.33;7.25;;;9.40;99.90;;;;;;4976492;28;20042;-86
2022/01/17 11:30:38;;;;;;;38.58;6.70;;;9.40;99.90;;;;;;5002321;28;20030;-86
2022/01/17 11:33:09;;;;;;;30.50;6.05;;;9.40;99.90;;;;;;5005350;28;21541;-82
2022/01/17 11:35:40;;;;;;;36.78;6.80;;;9.50;99.90;;;;;;4993393;28;20022;-82
2022/01/17 11:38:13;;;;;;;41.70;6.80;;;9.50;99.90;;;;;;4994734;28;20028;-82
2022/01/17 11:40:41;;;;;;;37.85;7.20;;;9.60;99.90;;;;;;5012321;28;20022;-82
2022/01/17 11:43:23;;;;;;;43.40;7.05;;;9.80;99.90;;;;;;5008689;28;20115;-82
2022/01/17 11:45:50;;;;;;;;;;;10.00;99.90;;;;;;5013958;28;20026;-81
2022/01/17 11:48:18;;;;;;;33.40;5.90;;;10.10;99.90;;;;;;5012278;28;19932;-82
2022/01/17 11:50:47;;;;;;;38.08;7.28;;;10.10;99.90;;;;;;4996011;28;20026;-82
2022/01/17 11:53:12;;;;;;;30.52;5.97;;;10.10;99.90;;;;;;4996225;28;20287;-82
2022/01/17 11:55:45;;;;;;;36.78;6.30;;;10.00;99.90;;;;;;4995958;28;20037;-82
2022/01/17 11:58:27;;;;;;;32.50;6.07;;;9.90;99.90;;;;;;5013052;28;20469;-82
2022/01/17 12:01:01;;;;;;;37.80;6.43;;;9.90;99.90;;;;;;4996563;28;20454;-82
2022/01/17 12:03:42;;;;;;;40.13;6.55;;;9.90;99.90;;;;;;5013089;28;20028;-83
2022/01/17 12:06:24;;;;;;;33.70;7.55;;;10.00;99.90;;;;;;4995225;28;20470;-82
2022/01/17 12:09:10;;;;;;;27.65;6.32;;;10.00;99.90;;;;;;4995582;28;20033;-84
2022/01/17 12:11:36;;;;;;;37.15;7.30;;;10.10;99.90;;;;;;4995953;28;20114;-84
2022/01/17 12:14:33;;;;;;;35.65;6.80;;;10.20;99.90;;;;;;4995547;28;20026;-84
2022/01/17 12:17:25;;;;;;;41.10;7.03;;;10.40;99.90;;;;;;5004037;28;20148;-84
2022/01/17 12:20:06;;;;;;;41.17;5.90;;;10.30;99.90;;;;;;4996280;28;20023;-96
2022/01/17 12:22:46;;;;;;;39.88;6.50;;;10.20;99.90;;;;;;5015413;28;20044;-88
2022/01/17 12:25:24;;;;;;;35.80;6.75;;;10.10;99.90;;;;;;4996475;28;20532;-84
2022/01/17 12:28:08;;;;;;;34.53;6.43;;;10.10;99.90;;;;;;5028261;28;20030;-83
2022/01/17 12:30:46;;;;;;;37.75;6.85;;;10.00;99.90;;;;;;5022404;28;20080;-83
2022/01/17 12:33:28;;;;;;;45.67;6.80;;;10.00;99.90;;;;;;4991813;28;20112;-85
2022/01/17 12:35:56;;;;;;;34.90;6.25;;;10.10;99.90;;;;;;4995055;28;20042;-83
2022/01/17 12:38:31;;;;;;;40.97;6.63;;;10.00;99.90;;;;;;4996591;28;20029;-86
2022/01/17 12:40:58;;;;;;;32.00;6.45;;;10.10;99.90;;;;;;5027357;28;20107;-86
2022/01/17 12:43:32;;;;;;;39.60;7.50;;;10.20;99.90;;;;;;4996806;28;20072;-86
2022/01/17 12:46:01;;;;;;;35.17;6.30;;;10.30;99.90;;;;;;4997315;28;20057;-85
2022/01/17 12:48:29;;;;;;;37.35;7.15;;;10.50;99.90;;;;;;5014409;28;20037;-85
2022/01/17 12:50:56;;;;;;;35.70;6.18;;;10.60;99.90;;;;;;4986895;28;20033;-84
2022/01/17 12:53:26;;;;;;;32.60;6.70;;;10.60;99.90;;;;;;5013200;28;20042;-85
2022/01/17 12:56:05;;;;;;;37.88;7.93;;;10.50;99.90;;;;;;5014172;28;20038;-85
2022/01/17 12:58:33;;;;;;;41.15;7.32;;;10.40;99.90;;;;;;5008634;28;20109;-86
2022/01/17 13:01:05;;;;;;;35.90;6.57;;;10.30;99.90;;;;;;4996559;28;20049;-85
2022/01/17 13:03:34;;;;;;;33.08;6.15;;;10.30;99.90;;;;;;4996637;28;20505;-85
2022/01/17 13:06:01;;;;;;;33.88;6.55;;;10.20;99.90;;;;;;4995567;28;20088;-86
2022/01/17 13:08:27;;;;;;;37.60;7.30;;;10.10;99.90;;;;;;4996862;28;20473;-84
2022/01/17 13:10:55;;;;;;;37.47;5.95;;;10.00;99.90;;;;;;5010666;28;20460;-85
2022/01/17 13:13:21;;;;;;;37.08;6.38;;;9.90;99.90;;;;;;5014249;28;20079;-84
2022/01/17 13:15:57;;;;;;;31.67;6.22;;;9.90;99.90;;;;;;4997089;28;20363;-84
2022/01/17 13:18:24;;;;;;;30.33;5.93;;;9.80;99.90;;;;;;5013780;28;20072;-84
2022/01/17 13:20:50;;;;;;;31.52;6.20;;;9.80;99.90;;;;;;4996731;28;20026;-83
2022/01/17 13:23:24;;;;;;;35.10;6.13;;;9.70;99.90;;;;;;4995478;28;20026;-83